sensor_id;sensor_type;location;lat;lon;timestamp;temperature;humidity
66190;DHT22;52992;52.084;5.412;2023-08-24T00:01:42;23.10;54.20
66190;DHT22;52992;52.084;5.412;2023-08-24T00:04:09;23.00;54.10
66190;DHT22;52992;52.084;5.412;2023-08-24T00:06:37;23.00;54.20
66190;DHT22;52992;52.084;5.412;2023-08-24T00:09:04;23.00;54.20
66190;DHT22;52992;52.084;5.412;2023-08-24T00:11:32;23.00;54.30
66190;DHT22;52992;52.084;5.412;2023-08-24T00:13:59;22.90;54.20
66190;DHT22;52992;52.084;5.412;2023-08-24T00:16:27;22.90;54.10
66190;DHT22;52992;52.084;5.412;2023-08-24T00:18:54;22.90;54.10
66190;DHT22;52992;52.084;5.412;2023-08-24T00:21:20;22.90;54.00
66190;DHT22;52992;52.084;5.412;2023-08-24T00:23:53;22.90;54.00
66190;DHT22;52992;52.084;5.412;2023-08-24T00:26:20;22.80;54.00
66190;DHT22;52992;52.084;5.412;2023-08-24T00:28:47;22.80;54.10
66190;DHT22;52992;52.084;5.412;2023-08-24T00:31:17;22.80;54.20
66190;DHT22;52992;52.084;5.412;2023-08-24T00:33:47;22.80;54.10
66190;DHT22;52992;52.084;5.412;2023-08-24T00:36:14;22.80;54.80
66190;DHT22;52992;52.084;5.412;2023-08-24T00:38:42;22.70;54.10
66190;DHT22;52992;52.084;5.412;2023-08-24T00:41:10;22.70;54.10
66190;DHT22;52992;52.084;5.412;2023-08-24T00:43:37;22.70;54.80
66190;DHT22;52992;52.084;5.412;2023-08-24T00:46:05;22.70;54.30
66190;DHT22;52992;52.084;5.412;2023-08-24T00:48:31;22.70;54.50
66190;DHT22;52992;52.084;5.412;2023-08-24T00:51:00;22.70;54.70
66190;DHT22;52992;52.084;5.412;2023-08-24T00:53:30;22.70;54.70
66190;DHT22;52992;52.084;5.412;2023-08-24T00:55:57;22.70;54.50
66190;DHT22;52992;52.084;5.412;2023-08-24T00:58:26;22.70;54.60
66190;DHT22;52992;52.084;5.412;2023-08-24T01:00:56;22.70;54.70
66190;DHT22;52992;52.084;5.412;2023-08-24T01:03:23;22.70;55.00
66190;DHT22;52992;52.084;5.412;2023-08-24T01:05:51;22.70;55.20
66190;DHT22;52992;52.084;5.412;2023-08-24T01:08:20;22.70;55.50
66190;DHT22;52992;52.084;5.412;2023-08-24T01:11:03;22.70;55.40
66190;DHT22;52992;52.084;5.412;2023-08-24T01:13:47;22.80;55.40
66190;DHT22;52992;52.084;5.412;2023-08-24T01:16:27;22.80;56.00
66190;DHT22;52992;52.084;5.412;2023-08-24T01:18:59;22.80;55.20
66190;DHT22;52992;52.084;5.412;2023-08-24T01:21:26;22.80;55.20
66190;DHT22;52992;52.084;5.412;2023-08-24T01:24:36;22.70;55.20
66190;DHT22;52992;52.084;5.412;2023-08-24T01:27:05;22.70;55.10
66190;DHT22;52992;52.084;5.412;2023-08-24T01:29:32;22.70;54.90
66190;DHT22;52992;52.084;5.412;2023-08-24T01:32:00;22.70;54.90
66190;DHT22;52992;52.084;5.412;2023-08-24T01:34:26;22.70;55.10
66190;DHT22;52992;52.084;5.412;2023-08-24T01:36:53;22.60;54.80
66190;DHT22;52992;52.084;5.412;2023-08-24T01:39:38;22.60;55.00
66190;DHT22;52992;52.084;5.412;2023-08-24T01:42:11;22.60;55.00
66190;DHT22;52992;52.084;5.412;2023-08-24T01:44:50;22.60;55.00
66190;DHT22;52992;52.084;5.412;2023-08-24T01:47:19;22.70;55.10
66190;DHT22;52992;52.084;5.412;2023-08-24T01:49:48;22.60;55.00
66190;DHT22;52992;52.084;5.412;2023-08-24T01:52:15;22.60;55.00
66190;DHT22;52992;52.084;5.412;2023-08-24T01:54:43;22.60;55.00
66190;DHT22;52992;52.084;5.412;2023-08-24T01:57:10;22.60;55.10
66190;DHT22;52992;52.084;5.412;2023-08-24T01:59:37;22.60;55.10
66190;DHT22;52992;52.084;5.412;2023-08-24T02:02:04;22.60;55.20
66190;DHT22;52992;52.084;5.412;2023-08-24T02:04:31;22.60;55.20
66190;DHT22;52992;52.084;5.412;2023-08-24T02:06:58;22.60;55.10
66190;DHT22;52992;52.084;5.412;2023-08-24T02:09:25;22.60;55.20
66190;DHT22;52992;52.084;5.412;2023-08-24T02:11:52;22.60;55.50
66190;DHT22;52992;52.084;5.412;2023-08-24T02:14:19;22.60;55.50
66190;DHT22;52992;52.084;5.412;2023-08-24T02:16:46;22.60;55.70
66190;DHT22;52992;52.084;5.412;2023-08-24T02:19:13;22.60;56.00
66190;DHT22;52992;52.084;5.412;2023-08-24T02:21:40;22.60;56.00
66190;DHT22;52992;52.084;5.412;2023-08-24T02:24:07;22.70;56.20
66190;DHT22;52992;52.084;5.412;2023-08-24T02:26:34;22.70;56.30
66190;DHT22;52992;52.084;5.412;2023-08-24T02:29:01;22.70;57.10
66190;DHT22;52992;52.084;5.412;2023-08-24T02:31:28;22.70;56.40
66190;DHT22;52992;52.084;5.412;2023-08-24T02:33:55;22.70;56.50
66190;DHT22;52992;52.084;5.412;2023-08-24T02:36:23;22.70;56.90
66190;DHT22;52992;52.084;5.412;2023-08-24T02:38:50;22.60;57.20
66190;DHT22;52992;52.084;5.412;2023-08-24T02:41:17;22.60;57.80
66190;DHT22;52992;52.084;5.412;2023-08-24T02:43:44;22.50;58.20
66190;DHT22;52992;52.084;5.412;2023-08-24T02:46:13;22.40;58.70
66190;DHT22;52992;52.084;5.412;2023-08-24T02:48:40;22.30;58.90
66190;DHT22;52992;52.084;5.412;2023-08-24T02:51:08;22.30;58.90
66190;DHT22;52992;52.084;5.412;2023-08-24T02:53:36;22.30;59.10
66190;DHT22;52992;52.084;5.412;2023-08-24T02:56:03;22.30;59.00
66190;DHT22;52992;52.084;5.412;2023-08-24T02:58:30;22.30;58.90
66190;DHT22;52992;52.084;5.412;2023-08-24T03:00:58;22.40;58.70
66190;DHT22;52992;52.084;5.412;2023-08-24T03:03:25;22.50;58.50
66190;DHT22;52992;52.084;5.412;2023-08-24T03:08:24;22.60;58.50
66190;DHT22;52992;52.084;5.412;2023-08-24T03:10:52;22.60;58.50
66190;DHT22;52992;52.084;5.412;2023-08-24T03:13:19;22.70;58.60
66190;DHT22;52992;52.084;5.412;2023-08-24T03:15:46;22.70;58.60
66190;DHT22;52992;52.084;5.412;2023-08-24T03:18:14;22.70;58.60
66190;DHT22;52992;52.084;5.412;2023-08-24T03:20:43;22.70;58.40
66190;DHT22;52992;52.084;5.412;2023-08-24T03:23:10;22.70;58.50
66190;DHT22;52992;52.084;5.412;2023-08-24T03:25:39;22.70;58.50
66190;DHT22;52992;52.084;5.412;2023-08-24T03:28:08;22.70;58.70
66190;DHT22;52992;52.084;5.412;2023-08-24T03:30:36;22.80;58.80
66190;DHT22;52992;52.084;5.412;2023-08-24T03:33:05;22.80;58.90
66190;DHT22;52992;52.084;5.412;2023-08-24T03:35:33;22.80;58.80
66190;DHT22;52992;52.084;5.412;2023-08-24T03:38:00;22.80;58.60
66190;DHT22;52992;52.084;5.412;2023-08-24T03:40:27;22.80;58.40
66190;DHT22;52992;52.084;5.412;2023-08-24T03:42:54;22.70;58.20
66190;DHT22;52992;52.084;5.412;2023-08-24T03:45:22;22.70;58.20
66190;DHT22;52992;52.084;5.412;2023-08-24T03:47:49;22.70;58.20
66190;DHT22;52992;52.084;5.412;2023-08-24T03:50:17;22.70;58.20
66190;DHT22;52992;52.084;5.412;2023-08-24T03:52:44;22.70;58.30
66190;DHT22;52992;52.084;5.412;2023-08-24T03:55:11;22.60;58.30
66190;DHT22;52992;52.084;5.412;2023-08-24T03:57:38;22.60;58.40
66190;DHT22;52992;52.084;5.412;2023-08-24T04:00:06;22.60;58.50
66190;DHT22;52992;52.084;5.412;2023-08-24T04:02:43;22.60;58.60
66190;DHT22;52992;52.084;5.412;2023-08-24T04:05:18;22.60;58.70
66190;DHT22;52992;52.084;5.412;2023-08-24T04:07:44;22.60;58.70
66190;DHT22;52992;52.084;5.412;2023-08-24T04:10:11;22.60;58.70
66190;DHT22;52992;52.084;5.412;2023-08-24T04:12:38;22.50;58.60
66190;DHT22;52992;52.084;5.412;2023-08-24T04:15:05;22.50;58.60
66190;DHT22;52992;52.084;5.412;2023-08-24T04:17:32;22.50;58.50
66190;DHT22;52992;52.084;5.412;2023-08-24T04:19:59;22.50;58.50
66190;DHT22;52992;52.084;5.412;2023-08-24T04:22:26;22.50;58.50
66190;DHT22;52992;52.084;5.412;2023-08-24T04:24:53;22.40;58.40
66190;DHT22;52992;52.084;5.412;2023-08-24T04:27:20;22.40;58.60
66190;DHT22;52992;52.084;5.412;2023-08-24T04:29:48;22.40;58.70
66190;DHT22;52992;52.084;5.412;2023-08-24T04:32:15;22.40;58.70
66190;DHT22;52992;52.084;5.412;2023-08-24T04:34:42;22.40;58.70
66190;DHT22;52992;52.084;5.412;2023-08-24T04:37:09;22.40;58.70
66190;DHT22;52992;52.084;5.412;2023-08-24T04:39:36;22.30;58.60
66190;DHT22;52992;52.084;5.412;2023-08-24T04:42:04;22.30;58.40
66190;DHT22;52992;52.084;5.412;2023-08-24T04:44:32;22.20;58.30
66190;DHT22;52992;52.084;5.412;2023-08-24T04:46:59;22.20;58.30
66190;DHT22;52992;52.084;5.412;2023-08-24T04:49:26;22.20;58.30
66190;DHT22;52992;52.084;5.412;2023-08-24T04:51:55;22.20;58.30
66190;DHT22;52992;52.084;5.412;2023-08-24T04:54:22;22.10;58.20
66190;DHT22;52992;52.084;5.412;2023-08-24T04:56:49;22.10;58.30
66190;DHT22;52992;52.084;5.412;2023-08-24T04:59:16;22.10;58.40
66190;DHT22;52992;52.084;5.412;2023-08-24T05:01:43;22.10;58.50
66190;DHT22;52992;52.084;5.412;2023-08-24T05:04:10;22.10;58.70
66190;DHT22;52992;52.084;5.412;2023-08-24T05:06:37;22.10;58.70
66190;DHT22;52992;52.084;5.412;2023-08-24T05:09:04;22.10;58.70
66190;DHT22;52992;52.084;5.412;2023-08-24T05:11:31;22.20;59.40
66190;DHT22;52992;52.084;5.412;2023-08-24T05:13:58;22.20;58.70
66190;DHT22;52992;52.084;5.412;2023-08-24T05:16:25;22.20;58.80
66190;DHT22;52992;52.084;5.412;2023-08-24T05:18:52;22.20;58.80
66190;DHT22;52992;52.084;5.412;2023-08-24T05:21:19;22.20;58.80
66190;DHT22;52992;52.084;5.412;2023-08-24T05:23:45;22.30;58.90
66190;DHT22;52992;52.084;5.412;2023-08-24T05:26:12;22.30;58.90
66190;DHT22;52992;52.084;5.412;2023-08-24T05:28:39;22.30;58.90
66190;DHT22;52992;52.084;5.412;2023-08-24T05:31:06;22.30;58.90
66190;DHT22;52992;52.084;5.412;2023-08-24T05:33:33;22.30;59.00
66190;DHT22;52992;52.084;5.412;2023-08-24T05:36:00;22.30;59.10
66190;DHT22;52992;52.084;5.412;2023-08-24T05:38:27;22.40;60.00
66190;DHT22;52992;52.084;5.412;2023-08-24T05:40:55;22.40;59.40
66190;DHT22;52992;52.084;5.412;2023-08-24T05:43:22;22.40;59.40
66190;DHT22;52992;52.084;5.412;2023-08-24T05:45:49;22.50;59.60
66190;DHT22;52992;52.084;5.412;2023-08-24T05:48:16;22.50;59.70
66190;DHT22;52992;52.084;5.412;2023-08-24T05:50:47;22.50;59.70
66190;DHT22;52992;52.084;5.412;2023-08-24T05:53:14;22.60;59.70
66190;DHT22;52992;52.084;5.412;2023-08-24T05:55:41;22.70;59.80
66190;DHT22;52992;52.084;5.412;2023-08-24T05:58:08;22.70;59.80
66190;DHT22;52992;52.084;5.412;2023-08-24T06:00:35;22.70;59.80
66190;DHT22;52992;52.084;5.412;2023-08-24T06:03:03;22.80;59.70
66190;DHT22;52992;52.084;5.412;2023-08-24T06:05:30;22.80;59.60
66190;DHT22;52992;52.084;5.412;2023-08-24T06:07:58;23.00;59.60
66190;DHT22;52992;52.084;5.412;2023-08-24T06:10:25;23.00;59.50
66190;DHT22;52992;52.084;5.412;2023-08-24T06:12:54;23.10;59.40
66190;DHT22;52992;52.084;5.412;2023-08-24T06:15:21;23.20;59.30
66190;DHT22;52992;52.084;5.412;2023-08-24T06:17:51;23.30;59.40
66190;DHT22;52992;52.084;5.412;2023-08-24T06:20:19;23.30;59.30
66190;DHT22;52992;52.084;5.412;2023-08-24T06:22:46;23.40;59.10
66190;DHT22;52992;52.084;5.412;2023-08-24T06:25:14;23.50;59.10
66190;DHT22;52992;52.084;5.412;2023-08-24T06:27:41;23.50;59.00
66190;DHT22;52992;52.084;5.412;2023-08-24T06:30:08;23.60;59.00
66190;DHT22;52992;52.084;5.412;2023-08-24T06:32:35;23.70;59.10
66190;DHT22;52992;52.084;5.412;2023-08-24T06:35:04;23.80;59.00
66190;DHT22;52992;52.084;5.412;2023-08-24T06:37:32;23.90;58.90
66190;DHT22;52992;52.084;5.412;2023-08-24T06:39:59;24.00;58.60
66190;DHT22;52992;52.084;5.412;2023-08-24T06:42:27;24.10;58.60
66190;DHT22;52992;52.084;5.412;2023-08-24T06:44:54;24.20;58.60
66190;DHT22;52992;52.084;5.412;2023-08-24T06:47:21;24.20;58.40
66190;DHT22;52992;52.084;5.412;2023-08-24T06:49:48;24.30;58.40
66190;DHT22;52992;52.084;5.412;2023-08-24T06:52:15;24.40;58.00
66190;DHT22;52992;52.084;5.412;2023-08-24T06:54:42;24.40;58.10
66190;DHT22;52992;52.084;5.412;2023-08-24T06:57:09;24.50;58.10
66190;DHT22;52992;52.084;5.412;2023-08-24T06:59:36;24.60;57.90
66190;DHT22;52992;52.084;5.412;2023-08-24T07:02:03;24.70;57.90
66190;DHT22;52992;52.084;5.412;2023-08-24T07:04:31;24.80;57.60
66190;DHT22;52992;52.084;5.412;2023-08-24T07:06:58;24.90;57.50
66190;DHT22;52992;52.084;5.412;2023-08-24T07:09:25;24.90;57.60
66190;DHT22;52992;52.084;5.412;2023-08-24T07:11:52;25.00;57.30
66190;DHT22;52992;52.084;5.412;2023-08-24T07:14:19;25.10;57.00
66190;DHT22;52992;52.084;5.412;2023-08-24T07:16:46;25.30;56.80
66190;DHT22;52992;52.084;5.412;2023-08-24T07:19:13;25.30;56.80
66190;DHT22;52992;52.084;5.412;2023-08-24T07:21:41;25.50;56.60
66190;DHT22;52992;52.084;5.412;2023-08-24T07:24:08;25.50;56.10
66190;DHT22;52992;52.084;5.412;2023-08-24T07:26:35;25.50;56.20
66190;DHT22;52992;52.084;5.412;2023-08-24T07:29:02;25.60;56.20
66190;DHT22;52992;52.084;5.412;2023-08-24T07:31:28;25.80;55.80
66190;DHT22;52992;52.084;5.412;2023-08-24T07:33:55;25.90;55.50
66190;DHT22;52992;52.084;5.412;2023-08-24T07:36:22;26.00;55.80
66190;DHT22;52992;52.084;5.412;2023-08-24T07:38:49;26.20;55.50
66190;DHT22;52992;52.084;5.412;2023-08-24T07:41:16;26.20;55.40
66190;DHT22;52992;52.084;5.412;2023-08-24T07:43:45;26.20;55.10
66190;DHT22;52992;52.084;5.412;2023-08-24T07:46:12;26.20;55.50
66190;DHT22;52992;52.084;5.412;2023-08-24T07:48:39;26.40;55.60
66190;DHT22;52992;52.084;5.412;2023-08-24T07:51:07;26.60;55.00
66190;DHT22;52992;52.084;5.412;2023-08-24T07:53:36;26.80;54.30
66190;DHT22;52992;52.084;5.412;2023-08-24T07:56:03;26.80;54.30
66190;DHT22;52992;52.084;5.412;2023-08-24T07:58:30;26.80;54.10
66190;DHT22;52992;52.084;5.412;2023-08-24T08:01:01;26.90;53.40
66190;DHT22;52992;52.084;5.412;2023-08-24T08:03:28;26.90;53.40
66190;DHT22;52992;52.084;5.412;2023-08-24T08:05:57;27.10;53.80
66190;DHT22;52992;52.084;5.412;2023-08-24T08:08:25;27.30;53.70
66190;DHT22;52992;52.084;5.412;2023-08-24T08:10:59;27.40;54.30
66190;DHT22;52992;52.084;5.412;2023-08-24T08:13:27;27.40;51.70
66190;DHT22;52992;52.084;5.412;2023-08-24T08:16:04;27.40;51.10
66190;DHT22;52992;52.084;5.412;2023-08-24T08:18:32;27.30;51.10
66190;DHT22;52992;52.084;5.412;2023-08-24T08:21:00;27.30;51.70
66190;DHT22;52992;52.084;5.412;2023-08-24T08:23:27;27.40;51.50
66190;DHT22;52992;52.084;5.412;2023-08-24T08:25:54;27.50;52.00
66190;DHT22;52992;52.084;5.412;2023-08-24T08:28:21;27.50;51.80
66190;DHT22;52992;52.084;5.412;2023-08-24T08:30:48;27.60;51.30
66190;DHT22;52992;52.084;5.412;2023-08-24T08:33:16;27.70;51.10
66190;DHT22;52992;52.084;5.412;2023-08-24T08:35:43;27.80;50.30
66190;DHT22;52992;52.084;5.412;2023-08-24T08:38:10;27.80;50.00
66190;DHT22;52992;52.084;5.412;2023-08-24T08:40:38;27.70;50.00
66190;DHT22;52992;52.084;5.412;2023-08-24T08:43:05;27.80;49.80
66190;DHT22;52992;52.084;5.412;2023-08-24T08:45:32;27.80;49.80
66190;DHT22;52992;52.084;5.412;2023-08-24T08:48:01;27.80;50.00
66190;DHT22;52992;52.084;5.412;2023-08-24T08:50:29;27.90;49.70
66190;DHT22;52992;52.084;5.412;2023-08-24T08:52:58;28.00;49.90
66190;DHT22;52992;52.084;5.412;2023-08-24T08:55:25;28.10;49.50
66190;DHT22;52992;52.084;5.412;2023-08-24T08:57:56;28.20;49.10
66190;DHT22;52992;52.084;5.412;2023-08-24T09:00:28;28.20;49.20
66190;DHT22;52992;52.084;5.412;2023-08-24T09:02:56;28.30;49.10
66190;DHT22;52992;52.084;5.412;2023-08-24T09:05:24;28.40;48.70
66190;DHT22;52992;52.084;5.412;2023-08-24T09:07:56;28.50;48.50
66190;DHT22;52992;52.084;5.412;2023-08-24T09:10:24;28.60;48.20
66190;DHT22;52992;52.084;5.412;2023-08-24T09:12:51;28.70;47.90
66190;DHT22;52992;52.084;5.412;2023-08-24T09:15:27;28.80;47.40
66190;DHT22;52992;52.084;5.412;2023-08-24T09:17:58;28.90;47.30
66190;DHT22;52992;52.084;5.412;2023-08-24T09:20:28;29.00;47.80
66190;DHT22;52992;52.084;5.412;2023-08-24T09:22:56;29.20;47.50
66190;DHT22;52992;52.084;5.412;2023-08-24T09:25:24;29.50;46.10
66190;DHT22;52992;52.084;5.412;2023-08-24T09:27:58;29.70;45.50
66190;DHT22;52992;52.084;5.412;2023-08-24T09:30:30;30.00;45.80
66190;DHT22;52992;52.084;5.412;2023-08-24T09:33:02;30.30;45.10
66190;DHT22;52992;52.084;5.412;2023-08-24T09:35:34;30.50;43.70
66190;DHT22;52992;52.084;5.412;2023-08-24T09:38:20;30.50;43.00
66190;DHT22;52992;52.084;5.412;2023-08-24T09:40:50;30.50;43.50
66190;DHT22;52992;52.084;5.412;2023-08-24T09:43:18;30.40;43.40
66190;DHT22;52992;52.084;5.412;2023-08-24T09:46:03;30.40;43.50
66190;DHT22;52992;52.084;5.412;2023-08-24T09:48:31;30.50;43.90
66190;DHT22;52992;52.084;5.412;2023-08-24T09:51:02;30.60;44.00
66190;DHT22;52992;52.084;5.412;2023-08-24T09:53:33;30.50;43.90
66190;DHT22;52992;52.084;5.412;2023-08-24T09:56:04;30.50;43.50
66190;DHT22;52992;52.084;5.412;2023-08-24T09:58:34;30.30;44.30
66190;DHT22;52992;52.084;5.412;2023-08-24T10:01:01;30.30;44.10
66190;DHT22;52992;52.084;5.412;2023-08-24T10:03:32;30.10;44.70
66190;DHT22;52992;52.084;5.412;2023-08-24T10:06:01;29.90;45.50
66190;DHT22;52992;52.084;5.412;2023-08-24T10:08:47;29.70;45.80
66190;DHT22;52992;52.084;5.412;2023-08-24T10:11:19;29.50;46.70
66190;DHT22;52992;52.084;5.412;2023-08-24T10:14:29;29.30;47.80
66190;DHT22;52992;52.084;5.412;2023-08-24T10:16:48;29.20;47.20
66190;DHT22;52992;52.084;5.412;2023-08-24T10:19:16;29.00;47.80
66190;DHT22;52992;52.084;5.412;2023-08-24T10:21:44;28.90;47.60
66190;DHT22;52992;52.084;5.412;2023-08-24T10:24:12;28.70;48.00
66190;DHT22;52992;52.084;5.412;2023-08-24T10:26:42;28.40;49.10
66190;DHT22;52992;52.084;5.412;2023-08-24T10:29:10;28.40;49.60
66190;DHT22;52992;52.084;5.412;2023-08-24T10:31:37;28.40;49.20
66190;DHT22;52992;52.084;5.412;2023-08-24T10:34:06;28.40;49.30
66190;DHT22;52992;52.084;5.412;2023-08-24T10:36:33;28.40;49.80
66190;DHT22;52992;52.084;5.412;2023-08-24T10:39:05;28.30;50.20
66190;DHT22;52992;52.084;5.412;2023-08-24T10:41:49;28.40;51.30
66190;DHT22;52992;52.084;5.412;2023-08-24T10:44:33;28.30;51.90
66190;DHT22;52992;52.084;5.412;2023-08-24T10:47:21;28.20;52.40
66190;DHT22;52992;52.084;5.412;2023-08-24T10:52:24;28.20;53.50
66190;DHT22;52992;52.084;5.412;2023-08-24T10:54:54;28.20;53.50
66190;DHT22;52992;52.084;5.412;2023-08-24T10:57:24;28.20;54.90
66190;DHT22;52992;52.084;5.412;2023-08-24T11:05:22;28.20;54.40
66190;DHT22;52992;52.084;5.412;2023-08-24T11:08:02;28.20;54.10
66190;DHT22;52992;52.084;5.412;2023-08-24T11:15:46;28.30;54.90
66190;DHT22;52992;52.084;5.412;2023-08-24T11:18:24;28.30;54.90
66190;DHT22;52992;52.084;5.412;2023-08-24T11:21:00;28.30;54.70
66190;DHT22;52992;52.084;5.412;2023-08-24T11:23:27;28.20;54.90
66190;DHT22;52992;52.084;5.412;2023-08-24T11:25:55;28.20;54.90
66190;DHT22;52992;52.084;5.412;2023-08-24T11:28:29;28.20;55.00
66190;DHT22;52992;52.084;5.412;2023-08-24T11:30:57;28.30;55.00
66190;DHT22;52992;52.084;5.412;2023-08-24T11:33:32;28.30;54.60
66190;DHT22;52992;52.084;5.412;2023-08-24T11:36:00;28.30;54.70
66190;DHT22;52992;52.084;5.412;2023-08-24T11:38:38;28.30;54.40
66190;DHT22;52992;52.084;5.412;2023-08-24T11:41:18;28.30;54.20
66190;DHT22;52992;52.084;5.412;2023-08-24T11:43:47;28.30;54.80
66190;DHT22;52992;52.084;5.412;2023-08-24T11:46:17;28.40;55.00
66190;DHT22;52992;52.084;5.412;2023-08-24T11:48:45;28.40;55.10
66190;DHT22;52992;52.084;5.412;2023-08-24T11:51:13;28.50;54.90
66190;DHT22;52992;52.084;5.412;2023-08-24T11:53:45;28.50;54.80
66190;DHT22;52992;52.084;5.412;2023-08-24T11:56:13;28.50;54.70
66190;DHT22;52992;52.084;5.412;2023-08-24T11:58:41;28.60;54.10
66190;DHT22;52992;52.084;5.412;2023-08-24T12:01:10;28.70;53.70
66190;DHT22;52992;52.084;5.412;2023-08-24T12:03:38;28.80;53.40
66190;DHT22;52992;52.084;5.412;2023-08-24T12:06:14;28.90;53.40
66190;DHT22;52992;52.084;5.412;2023-08-24T12:08:46;29.10;53.10
66190;DHT22;52992;52.084;5.412;2023-08-24T12:11:14;29.20;52.70
66190;DHT22;52992;52.084;5.412;2023-08-24T12:13:50;29.50;52.10
66190;DHT22;52992;52.084;5.412;2023-08-24T12:16:19;29.60;51.50
66190;DHT22;52992;52.084;5.412;2023-08-24T12:18:54;29.70;50.90
66190;DHT22;52992;52.084;5.412;2023-08-24T12:21:23;29.70;51.00
66190;DHT22;52992;52.084;5.412;2023-08-24T12:26:27;29.60;51.90
66190;DHT22;52992;52.084;5.412;2023-08-24T12:29:09;29.60;52.10
66190;DHT22;52992;52.084;5.412;2023-08-24T12:31:36;29.60;51.40
66190;DHT22;52992;52.084;5.412;2023-08-24T12:34:05;29.60;51.30
66190;DHT22;52992;52.084;5.412;2023-08-24T12:36:34;29.60;51.70
66190;DHT22;52992;52.084;5.412;2023-08-24T12:39:04;29.60;51.80
66190;DHT22;52992;52.084;5.412;2023-08-24T12:41:33;29.40;52.00
66190;DHT22;52992;52.084;5.412;2023-08-24T12:44:00;29.40;52.30
66190;DHT22;52992;52.084;5.412;2023-08-24T12:46:35;29.30;52.30
66190;DHT22;52992;52.084;5.412;2023-08-24T12:49:03;29.30;53.20
66190;DHT22;52992;52.084;5.412;2023-08-24T12:51:30;29.40;52.30
66190;DHT22;52992;52.084;5.412;2023-08-24T12:53:57;29.40;52.20
66190;DHT22;52992;52.084;5.412;2023-08-24T12:56:25;29.40;52.20
66190;DHT22;52992;52.084;5.412;2023-08-24T12:58:52;29.40;51.90
66190;DHT22;52992;52.084;5.412;2023-08-24T13:01:19;29.40;52.00
66190;DHT22;52992;52.084;5.412;2023-08-24T13:03:46;29.50;51.80
66190;DHT22;52992;52.084;5.412;2023-08-24T13:06:13;29.80;50.60
66190;DHT22;52992;52.084;5.412;2023-08-24T13:08:52;30.10;50.20
66190;DHT22;52992;52.084;5.412;2023-08-24T13:11:20;30.30;49.30
66190;DHT22;52992;52.084;5.412;2023-08-24T13:13:47;30.50;49.00
66190;DHT22;52992;52.084;5.412;2023-08-24T13:16:15;30.70;48.80
66190;DHT22;52992;52.084;5.412;2023-08-24T13:18:43;30.70;49.20
66190;DHT22;52992;52.084;5.412;2023-08-24T13:21:10;30.80;49.00
66190;DHT22;52992;52.084;5.412;2023-08-24T13:23:37;30.80;49.00
66190;DHT22;52992;52.084;5.412;2023-08-24T13:26:04;30.80;48.90
66190;DHT22;52992;52.084;5.412;2023-08-24T13:28:31;30.90;48.20
66190;DHT22;52992;52.084;5.412;2023-08-24T13:30:58;30.80;48.80
66190;DHT22;52992;52.084;5.412;2023-08-24T13:33:25;30.70;47.90
66190;DHT22;52992;52.084;5.412;2023-08-24T13:35:52;30.30;48.90
66190;DHT22;52992;52.084;5.412;2023-08-24T13:38:18;30.30;49.50
66190;DHT22;52992;52.084;5.412;2023-08-24T13:40:45;30.30;49.80
66190;DHT22;52992;52.084;5.412;2023-08-24T13:43:16;30.40;49.40
66190;DHT22;52992;52.084;5.412;2023-08-24T13:45:43;30.40;49.50
66190;DHT22;52992;52.084;5.412;2023-08-24T13:48:10;30.40;49.00
66190;DHT22;52992;52.084;5.412;2023-08-24T13:50:37;30.40;49.30
66190;DHT22;52992;52.084;5.412;2023-08-24T13:53:04;30.40;49.80
66190;DHT22;52992;52.084;5.412;2023-08-24T13:55:31;30.40;49.90
66190;DHT22;52992;52.084;5.412;2023-08-24T13:57:59;30.40;49.60
66190;DHT22;52992;52.084;5.412;2023-08-24T14:00:26;30.40;49.60
66190;DHT22;52992;52.084;5.412;2023-08-24T14:02:53;30.40;49.60
66190;DHT22;52992;52.084;5.412;2023-08-24T14:05:20;30.40;49.50
66190;DHT22;52992;52.084;5.412;2023-08-24T14:07:48;30.40;49.60
66190;DHT22;52992;52.084;5.412;2023-08-24T14:10:15;30.40;49.80
66190;DHT22;52992;52.084;5.412;2023-08-24T14:12:43;30.30;50.20
66190;DHT22;52992;52.084;5.412;2023-08-24T14:15:10;30.40;50.00
66190;DHT22;52992;52.084;5.412;2023-08-24T14:17:38;30.30;50.00
66190;DHT22;52992;52.084;5.412;2023-08-24T14:20:06;30.30;50.00
66190;DHT22;52992;52.084;5.412;2023-08-24T14:22:35;30.30;49.90
66190;DHT22;52992;52.084;5.412;2023-08-24T14:25:02;30.30;49.90
66190;DHT22;52992;52.084;5.412;2023-08-24T14:27:29;30.30;50.30
66190;DHT22;52992;52.084;5.412;2023-08-24T14:29:56;30.20;50.20
66190;DHT22;52992;52.084;5.412;2023-08-24T14:32:23;30.10;50.20
66190;DHT22;52992;52.084;5.412;2023-08-24T14:34:50;30.10;50.00
66190;DHT22;52992;52.084;5.412;2023-08-24T14:37:17;30.10;49.60
66190;DHT22;52992;52.084;5.412;2023-08-24T14:39:44;30.00;49.90
66190;DHT22;52992;52.084;5.412;2023-08-24T14:42:11;30.00;50.00
66190;DHT22;52992;52.084;5.412;2023-08-24T14:44:38;29.90;49.70
66190;DHT22;52992;52.084;5.412;2023-08-24T14:47:05;29.90;50.10
66190;DHT22;52992;52.084;5.412;2023-08-24T14:49:32;29.90;50.00
66190;DHT22;52992;52.084;5.412;2023-08-24T14:52:00;29.90;50.00
66190;DHT22;52992;52.084;5.412;2023-08-24T14:54:30;29.80;50.10
66190;DHT22;52992;52.084;5.412;2023-08-24T14:56:58;29.80;50.20
66190;DHT22;52992;52.084;5.412;2023-08-24T14:59:26;29.70;50.50
66190;DHT22;52992;52.084;5.412;2023-08-24T15:01:53;29.70;50.50
66190;DHT22;52992;52.084;5.412;2023-08-24T15:04:20;29.70;50.50
66190;DHT22;52992;52.084;5.412;2023-08-24T15:06:48;29.60;50.80
66190;DHT22;52992;52.084;5.412;2023-08-24T15:09:15;29.60;50.90
66190;DHT22;52992;52.084;5.412;2023-08-24T15:11:43;29.60;51.10
66190;DHT22;52992;52.084;5.412;2023-08-24T15:14:10;29.60;51.20
66190;DHT22;52992;52.084;5.412;2023-08-24T15:16:37;29.60;51.40
66190;DHT22;52992;52.084;5.412;2023-08-24T15:19:04;29.60;51.50
66190;DHT22;52992;52.084;5.412;2023-08-24T15:21:31;29.50;51.50
66190;DHT22;52992;52.084;5.412;2023-08-24T15:23:58;29.60;51.60
66190;DHT22;52992;52.084;5.412;2023-08-24T15:26:25;29.60;51.70
66190;DHT22;52992;52.084;5.412;2023-08-24T15:29:12;29.60;51.80
66190;DHT22;52992;52.084;5.412;2023-08-24T15:31:42;29.60;51.90
66190;DHT22;52992;52.084;5.412;2023-08-24T15:34:10;29.50;51.90
66190;DHT22;52992;52.084;5.412;2023-08-24T15:36:37;29.60;52.00
66190;DHT22;52992;52.084;5.412;2023-08-24T15:39:04;29.60;52.00
66190;DHT22;52992;52.084;5.412;2023-08-24T15:41:32;29.60;52.00
66190;DHT22;52992;52.084;5.412;2023-08-24T15:43:59;29.70;51.90
66190;DHT22;52992;52.084;5.412;2023-08-24T15:46:26;29.70;51.40
66190;DHT22;52992;52.084;5.412;2023-08-24T15:48:53;29.70;51.20
66190;DHT22;52992;52.084;5.412;2023-08-24T15:51:23;29.80;51.00
66190;DHT22;52992;52.084;5.412;2023-08-24T15:53:50;29.90;50.60
66190;DHT22;52992;52.084;5.412;2023-08-24T15:56:17;30.00;50.80
66190;DHT22;52992;52.084;5.412;2023-08-24T15:58:44;30.00;50.00